Aviation Digital Data Service (ADDS)

Output produced by METARs form (0342 UTC 26 June 2019)
found at http://www.aviationweather.gov/metar/data/
 
Forecast for: ZJHK (HAIKOU , CN)
Text: TAF ZJHK 251908Z 2600/2624 18004MPS 9999 SCT020 TX35/2607Z TN26/2621Z
Forecast period: 0000 UTC 26 June 2019 to 0000 UTC 27 June 2019
Forecast type: FROM: standard forecast or significant change
Winds: from the S (180 degrees) at 9 MPH (8 knots; 4.1 m/s)
Visibility: 6 or more miles 10+ km)
Ceiling: at least 12,000 feet AGL
Clouds: scattered clouds at 2000 feet AGL
Weather: no significant weather forecast for this period
Text: TEMPO 2606/2612 TSRA SCT020 FEW026CB
Forecast period: 0600 to 1200 UTC 26 June 2019
Forecast type: TEMPORARY: The following changes expected for less than half the time period
Visibility: missing
Ceiling: at least 12,000 feet AGL
Clouds: scattered clouds at 2000 feet AGL
few clouds at 2600 feet AGL
Weather: TSRA  (rain associated with thunderstorm(s))